sensor_id;sensor_type;location;lat;lon;timestamp;pressure;altitude;pressure_sealevel;temperature;humidity
55679;BME280;41573;51.446;-2.018;2023-02-13T12:55:55;100292.09;;;10.18;100.00
55679;BME280;41573;51.446;-2.018;2023-02-13T12:58:45;100296.16;;;10.24;100.00
55679;BME280;41573;51.446;-2.018;2023-02-13T13:01:46;100286.94;;;10.30;100.00
55679;BME280;41573;51.446;-2.018;2023-02-13T13:23:42;100292.25;;;10.30;100.00
55679;BME280;41573;51.446;-2.018;2023-02-13T13:29:00;100276.44;;;10.56;100.00
55679;BME280;41573;51.446;-2.018;2023-02-13T13:31:29;100284.38;;;10.70;100.00
55679;BME280;41573;51.446;-2.018;2023-02-13T13:34:00;100295.97;;;10.83;100.00
55679;BME280;41573;51.446;-2.018;2023-02-13T13:36:35;100320.31;;;10.77;100.00
55679;BME280;41573;51.446;-2.018;2023-02-13T13:42:29;100338.72;;;10.95;100.00
55679;BME280;41573;51.446;-2.018;2023-02-13T13:45:20;100336.41;;;11.03;100.00
55679;BME280;41573;51.446;-2.018;2023-02-13T13:48:15;100336.00;;;11.09;100.00
55679;BME280;41573;51.446;-2.018;2023-02-13T13:50:43;100327.59;;;11.15;100.00
55679;BME280;41573;51.446;-2.018;2023-02-13T13:53:10;100342.31;;;11.21;100.00
55679;BME280;41573;51.446;-2.018;2023-02-13T14:01:28;100391.28;;;11.20;100.00
55679;BME280;41573;51.446;-2.018;2023-02-13T14:04:03;100389.44;;;11.20;100.00
55679;BME280;41573;51.446;-2.018;2023-02-13T14:09:36;100397.03;;;11.27;100.00
55679;BME280;41573;51.446;-2.018;2023-02-13T14:14:54;100379.16;;;11.29;100.00
55679;BME280;41573;51.446;-2.018;2023-02-13T14:26:16;100383.47;;;11.44;100.00
55679;BME280;41573;51.446;-2.018;2023-02-13T14:31:32;100388.78;;;11.44;100.00
55679;BME280;41573;51.446;-2.018;2023-02-13T14:34:01;100388.38;;;11.50;100.00
55679;BME280;41573;51.446;-2.018;2023-02-13T14:46:50;100378.16;;;11.57;100.00
55679;BME280;41573;51.446;-2.018;2023-02-13T14:49:21;100375.16;;;11.62;100.00
55679;BME280;41573;51.446;-2.018;2023-02-13T14:51:56;100361.09;;;11.85;100.00
55679;BME280;41573;51.446;-2.018;2023-02-13T14:54:46;100348.34;;;12.53;100.00
55679;BME280;41573;51.446;-2.018;2023-02-13T14:57:48;100371.06;;;13.20;100.00
55679;BME280;41573;51.446;-2.018;2023-02-13T15:00:23;100385.91;;;13.84;100.00
55679;BME280;41573;51.446;-2.018;2023-02-13T15:02:54;100403.03;;;14.62;100.00
55679;BME280;41573;51.446;-2.018;2023-02-13T15:05:21;100423.25;;;15.33;100.00
55679;BME280;41573;51.446;-2.018;2023-02-13T15:08:15;100474.56;;;15.51;100.00
55679;BME280;41573;51.446;-2.018;2023-02-13T15:10:44;100478.06;;;15.95;100.00
55679;BME280;41573;51.446;-2.018;2023-02-13T15:13:24;100510.94;;;16.30;100.00
55679;BME280;41573;51.446;-2.018;2023-02-13T15:16:10;100524.28;;;16.83;100.00
55679;BME280;41573;51.446;-2.018;2023-02-13T15:18:50;100276.59;;;16.96;100.00
55679;BME280;41573;51.446;-2.018;2023-02-13T15:21:22;100219.50;;;17.22;100.00
55679;BME280;41573;51.446;-2.018;2023-02-13T15:23:53;100245.28;;;17.34;100.00
55679;BME280;41573;51.446;-2.018;2023-02-13T15:26:22;100107.19;;;17.62;100.00
55679;BME280;41573;51.446;-2.018;2023-02-13T15:29:03;100057.03;;;16.76;100.00
55679;BME280;41573;51.446;-2.018;2023-02-13T15:31:31;100016.41;;;16.22;100.00
55679;BME280;41573;51.446;-2.018;2023-02-13T15:33:58;100000.72;;;16.17;100.00
55679;BME280;41573;51.446;-2.018;2023-02-13T15:36:25;100006.53;;;15.83;100.00
55679;BME280;41573;51.446;-2.018;2023-02-13T15:38:58;99987.78;;;15.32;100.00
55679;BME280;41573;51.446;-2.018;2023-02-13T15:41:31;99971.56;;;14.62;100.00
55679;BME280;41573;51.446;-2.018;2023-02-13T15:43:57;99948.59;;;13.96;100.00
55679;BME280;41573;51.446;-2.018;2023-02-13T15:46:27;99960.63;;;13.37;100.00
55679;BME280;41573;51.446;-2.018;2023-02-13T15:48:54;100006.72;;;12.84;100.00
55679;BME280;41573;51.446;-2.018;2023-02-13T15:51:24;100035.81;;;12.42;100.00
55679;BME280;41573;51.446;-2.018;2023-02-13T15:53:52;100084.72;;;12.07;100.00
55679;BME280;41573;51.446;-2.018;2023-02-13T15:56:19;100139.84;;;11.82;100.00
55679;BME280;41573;51.446;-2.018;2023-02-13T15:58:45;100178.63;;;11.62;100.00
55679;BME280;41573;51.446;-2.018;2023-02-13T16:01:12;100207.47;;;11.44;100.00
55679;BME280;41573;51.446;-2.018;2023-02-13T16:03:39;100219.19;;;11.29;100.00
55679;BME280;41573;51.446;-2.018;2023-02-13T16:06:06;100223.53;;;11.30;100.00
55679;BME280;41573;51.446;-2.018;2023-02-13T16:08:37;100222.81;;;11.28;100.00
55679;BME280;41573;51.446;-2.018;2023-02-13T16:11:31;100230.59;;;11.31;100.00
55679;BME280;41573;51.446;-2.018;2023-02-13T16:14:20;100239.66;;;11.41;100.00
55679;BME280;41573;51.446;-2.018;2023-02-13T16:16:55;100248.75;;;11.51;100.00
55679;BME280;41573;51.446;-2.018;2023-02-13T16:19:43;100260.59;;;11.47;100.00
55679;BME280;41573;51.446;-2.018;2023-02-13T16:22:31;100266.97;;;11.45;100.00
55679;BME280;41573;51.446;-2.018;2023-02-13T16:25:22;100268.03;;;11.42;100.00
55679;BME280;41573;51.446;-2.018;2023-02-13T16:28:00;100274.75;;;11.35;100.00
55679;BME280;41573;51.446;-2.018;2023-02-13T16:30:30;100284.03;;;11.29;100.00
55679;BME280;41573;51.446;-2.018;2023-02-13T16:35:36;100301.44;;;10.95;100.00
55679;BME280;41573;51.446;-2.018;2023-02-13T16:40:54;100300.97;;;10.88;100.00
55679;BME280;41573;51.446;-2.018;2023-02-13T16:46:59;100311.94;;;10.56;100.00
55679;BME280;41573;51.446;-2.018;2023-02-13T16:49:21;100312.72;;;10.44;100.00
55679;BME280;41573;51.446;-2.018;2023-02-13T16:52:20;100323.44;;;10.28;100.00
55679;BME280;41573;51.446;-2.018;2023-02-13T16:55:00;100311.47;;;10.06;100.00
55679;BME280;41573;51.446;-2.018;2023-02-13T16:57:32;100309.69;;;9.92;100.00
55679;BME280;41573;51.446;-2.018;2023-02-13T17:00:06;100301.63;;;9.79;100.00
55679;BME280;41573;51.446;-2.018;2023-02-13T17:02:40;100292.13;;;9.61;100.00
55679;BME280;41573;51.446;-2.018;2023-02-13T17:07:35;100311.25;;;9.37;100.00
55679;BME280;41573;51.446;-2.018;2023-02-13T17:12:43;100311.06;;;9.10;100.00
55679;BME280;41573;51.446;-2.018;2023-02-13T17:15:24;100306.47;;;8.97;100.00
55679;BME280;41573;51.446;-2.018;2023-02-13T17:17:50;100315.81;;;8.89;100.00
55679;BME280;41573;51.446;-2.018;2023-02-13T17:20:19;100322.69;;;8.77;100.00
55679;BME280;41573;51.446;-2.018;2023-02-13T17:22:48;100318.25;;;8.61;100.00
55679;BME280;41573;51.446;-2.018;2023-02-13T17:25:35;100331.09;;;8.53;100.00
55679;BME280;41573;51.446;-2.018;2023-02-13T17:31:28;100342.34;;;8.25;100.00
55679;BME280;41573;51.446;-2.018;2023-02-13T17:33:53;100345.47;;;8.16;100.00
55679;BME280;41573;51.446;-2.018;2023-02-13T17:36:21;100350.38;;;8.07;100.00
55679;BME280;41573;51.446;-2.018;2023-02-13T17:38:47;100351.69;;;7.99;100.00
55679;BME280;41573;51.446;-2.018;2023-02-13T17:41:14;100353.03;;;7.90;100.00
55679;BME280;41573;51.446;-2.018;2023-02-13T17:43:44;100348.16;;;7.82;100.00
55679;BME280;41573;51.446;-2.018;2023-02-13T17:46:10;100343.31;;;7.73;100.00
55679;BME280;41573;51.446;-2.018;2023-02-13T17:48:57;100334.22;;;7.61;100.00
